| time (UTC) | temp F | wind direction | speed knots | gust knots | rain 1hr in | rain 24hr in | rain mn in | humidity % | barometer mb |
| 20260906120100 | 97 | 59 | 0.0 | 3.5 | 0.00 | 0.00 | 0.00 | 40 | 1020.1 |
| 20260906114627 | 97 | 298 | 0.9 | 3.5 | 0.00 | 0.00 | 0.00 | 40 | 1020.3 |
| 20260906113114 | 97 | 170 | 0.0 | 1.7 | 0.00 | 0.00 | 0.00 | 42 | 1020.4 |
| 20260906111559 | 95 | 164 | 3.5 | 5.2 | 0.00 | 0.00 | 0.00 | 44 | 1020.6 |
| 20260906110053 | 93 | 267 | 1.7 | 4.3 | 0.00 | 0.00 | 0.00 | 45 | 1020.7 |
| 20260906104602 | 94 | 190 | 0.9 | 5.2 | 0.00 | 0.00 | 0.00 | 45 | 1020.7 |
| 20260906103056 | 92 | 155 | 0.9 | 2.6 | 0.00 | 0.00 | 0.00 | 47 | 1020.8 |
| 20260906101602 | 90 | 253 | 0.9 | 2.6 | 0.00 | 0.00 | 0.00 | 49 | 1021.1 |
| 20260906100106 | 89 | 281 | 0.9 | 2.6 | 0.00 | 0.00 | 0.00 | 51 | 1021.2 |
| 20260906094601 | 88 | 8 | 0.9 | 2.6 | 0.00 | 0.00 | 0.00 | 53 | 1021.4 |
| 20260906093059 | 87 | 109 | 0.9 | 2.6 | 0.00 | 0.00 | 0.00 | 54 | 1021.5 |
| 20260906091616 | 86 | 236 | 0.9 | 1.7 | 0.00 | 0.00 | 0.00 | 58 | 1021.6 |
| 20260906090112 | 84 | 294 | 1.7 | 3.5 | 0.00 | 0.00 | 0.00 | 61 | 1021.6 |
| 20260906084601 | 82 | 68 | 0.9 | 3.5 | 0.00 | 0.00 | 0.00 | 63 | 1021.6 |
| 20260906083103 | 81 | 271 | 0.0 | 4.3 | 0.00 | 0.00 | 0.00 | 65 | 1021.6 |
| 20260906081602 | 81 | 55 | 1.7 | 3.5 | 0.00 | 0.00 | 0.00 | 65 | 1021.6 |
| 20260906080111 | 81 | 220 | 0.0 | 2.6 | 0.00 | 0.00 | 0.00 | 66 | 1021.8 |
| 20260906074603 | 80 | 155 | 0.9 | 1.7 | 0.00 | 0.00 | 0.00 | 67 | 1021.5 |
| 20260906073103 | 79 | 274 | 0.9 | 2.6 | 0.00 | 0.00 | 0.00 | 68 | 1021.4 |
| 20260906071606 | 78 | 0 | 0.0 | 2.6 | 0.00 | 0.00 | 0.00 | 71 | 1021.2 |
| 20260906070106 | 76 | 304 | 0.9 | 1.7 | 0.00 | 0.00 | 0.00 | 71 | 1021.0 |
| 20260906064603 | 77 | 160 | 0.0 | 1.7 | 0.00 | 0.00 | 0.00 | 71 | 1021.1 |
| 20260906063058 | 76 | 0 | 0.0 | 0.9 | 0.00 | 0.00 | 0.00 | 74 | 1021.0 |
| 20260906061608 | 74 | 0 | 0.0 | 0.9 | 0.00 | 0.00 | 0.00 | 76 | 1021.0 |
| 20260906060151 | 72 | 0 | 0.0 | 0.9 | 0.00 | 0.00 | 0.00 | 79 | 1020.9 |
| 20260906054606 | 71 | 0 | 0.0 | 0.9 | 0.00 | 0.00 | 0.00 | 80 | 1020.9 |
| 20260906053102 | 70 | 0 | 0.0 | 0.9 | 0.00 | 0.00 | 0.00 | 83 | 1020.8 |
| 20260906051559 | 67 | 0 | 0.0 | 0.0 | 0.00 | 0.00 | 0.00 | 85 | 1020.8 |
| 20260906050116 | 67 | 0 | 0.0 | 0.0 | 0.00 | 0.00 | 0.00 | 85 | 1021.1 |
| 20260906044602 | 67 | 0 | 0.0 | 0.0 | 0.00 | 0.00 | 0.00 | 85 | 1021.0 |
| 20260906043107 | 67 | 0 | 0.0 | 0.0 | 0.00 | 0.00 | 0.00 | 84 | 1020.6 |
| 20260906041604 | 67 | 0 | 0.0 | 0.0 | 0.00 | 0.00 | 0.00 | 84 | 1020.7 |
| 20260906040058 | 68 | 0 | 0.0 | 0.0 | 0.00 | 0.00 | 0.00 | 84 | 1020.6 |
| 20260906034603 | 68 | 0 | 0.0 | 0.0 | 0.00 | 0.00 | 0.00 | 83 | 1020.6 |
| 20260906033101 | 68 | 0 | 0.0 | 0.0 | 0.00 | 0.00 | 0.00 | 83 | 1020.4 |
| 20260906031630 | 69 | 0 | 0.0 | 0.0 | 0.00 | 0.00 | 0.00 | 82 | 1020.3 |
| 20260906030109 | 69 | 0 | 0.0 | 0.0 | 0.00 | 0.00 | 0.00 | 82 | 1020.3 |
| 20260906024605 | 70 | 0 | 0.0 | 0.9 | 0.00 | 0.00 | 0.00 | 81 | 1020.3 |
| 20260906023113 | 70 | 0 | 0.0 | 0.9 | 0.00 | 0.00 | 0.00 | 82 | 1020.4 |
| 20260906021607 | 69 | 0 | 0.0 | 0.0 | 0.00 | 0.00 | 0.00 | 82 | 1020.3 |
| 20260906020103 | 69 | 0 | 0.0 | 0.0 | 0.00 | 0.00 | 0.00 | 81 | 1020.3 |
| 20260906014606 | 70 | 0 | 0.0 | 0.0 | 0.00 | 0.00 | 0.00 | 81 | 1020.2 |
| 20260906013101 | 69 | 0 | 0.0 | 0.0 | 0.00 | 0.00 | 0.00 | 81 | 1020.2 |
| 20260906011612 | 69 | 0 | 0.0 | 0.0 | 0.00 | 0.00 | 0.00 | 81 | 1020.2 |
| 20260906010104 | 70 | 0 | 0.0 | 0.0 | 0.00 | 0.00 | 0.00 | 80 | 1020.1 |
| 20260906004603 | 71 | 0 | 0.0 | 0.0 | 0.00 | 0.00 | 0.00 | 80 | 1020.1 |
| 20260906003108 | 71 | 0 | 0.0 | 0.0 | 0.00 | 0.00 | 0.00 | 78 | 1020.1 |
| 20260906001613 | 71 | 0 | 0.0 | 0.9 | 0.00 | 0.00 | 0.00 | 78 | 1020.1 |
| 20260906000109 | 72 | 0 | 0.0 | 0.0 | 0.00 | 0.00 | 0.00 | 77 | 1020.3 |
| 20260905234601 | 72 | 0 | 0.0 | 0.0 | 0.00 | 0.00 | 0.00 | 78 | 1020.2 |
| 20260905233107 | 72 | 0 | 0.0 | 0.0 | 0.00 | 0.00 | 0.00 | 78 | 1020.2 |
| 20260905231619 | 72 | 0 | 0.0 | 0.0 | 0.00 | 0.00 | 0.00 | 78 | 1020.2 |
| 20260905230108 | 73 | 0 | 0.0 | 0.0 | 0.00 | 0.00 | 0.00 | 76 | 1020.2 |
| 20260905224559 | 74 | 0 | 0.0 | 0.0 | 0.00 | 0.00 | 0.00 | 75 | 1020.1 |
| 20260905223105 | 75 | 0 | 0.0 | 0.9 | 0.00 | 0.00 | 0.00 | 73 | 1020.1 |
| 20260905221631 | 75 | 0 | 0.0 | 0.9 | 0.00 | 0.00 | 0.00 | 73 | 1020.0 |
| 20260905220103 | 76 | 0 | 0.9 | 1.7 | 0.00 | 0.00 | 0.00 | 72 | 1019.9 |
| 20260905214609 | 76 | 47 | 0.9 | 1.7 | 0.00 | 0.00 | 0.00 | 72 | 1019.8 |
| 20260905213105 | 75 | 46 | 0.9 | 1.7 | 0.00 | 0.00 | 0.00 | 74 | 1019.8 |
| 20260905211605 | 75 | 44 | 0.0 | 1.7 | 0.00 | 0.00 | 0.00 | 74 | 1019.7 |
| 20260905210114 | 76 | 0 | 0.0 | 0.0 | 0.00 | 0.00 | 0.00 | 73 | 1019.6 |
| 20260905204601 | 76 | 0 | 0.0 | 0.9 | 0.00 | 0.00 | 0.00 | 73 | 1019.6 |
| 20260905203102 | 77 | 0 | 0.0 | 1.7 | 0.00 | 0.00 | 0.00 | 71 | 1019.5 |
| 20260905201610 | 77 | 179 | 0.9 | 2.6 | 0.00 | 0.00 | 0.00 | 71 | 1019.5 |
| 20260905200130 | 77 | 0 | 0.0 | 0.0 | 0.00 | 0.00 | 0.00 | 71 | 1019.4 |
| 20260905194600 | 77 | 0 | 0.0 | 0.0 | 0.00 | 0.00 | 0.00 | 70 | 1019.3 |
| 20260905193101 | 78 | 0 | 0.0 | 0.0 | 0.00 | 0.00 | 0.00 | 68 | 1019.2 |
| 20260905191602 | 79 | 0 | 0.0 | 0.9 | 0.00 | 0.00 | 0.00 | 66 | 1018.9 |
| 20260905184603 | 81 | 0 | 0.0 | 0.0 | 0.00 | 0.00 | 0.00 | 65 | 1018.7 |
| 20260905183103 | 81 | 0 | 0.0 | 1.7 | 0.00 | 0.00 | 0.00 | 64 | 1018.6 |
| 20260905181609 | 82 | 273 | 0.0 | 0.9 | 0.00 | 0.00 | 0.00 | 64 | 1018.3 |
| 20260905180116 | 83 | 0 | 0.0 | 2.6 | 0.00 | 0.00 | 0.00 | 62 | 1018.1 |
| 20260905174557 | 84 | 0 | 0.0 | 1.7 | 0.00 | 0.00 | 0.00 | 60 | 1018.0 |
| 20260905173132 | 85 | 200 | 0.0 | 2.6 | 0.00 | 0.00 | 0.00 | 57 | 1018.0 |
| 20260905171606 | 86 | 220 | 0.0 | 1.7 | 0.00 | 0.00 | 0.00 | 57 | 1017.9 |
| 20260905170105 | 87 | 162 | 0.0 | 4.3 | 0.00 | 0.00 | 0.00 | 55 | 1017.8 |
| 20260905164615 | 88 | 262 | 0.0 | 2.6 | 0.00 | 0.00 | 0.00 | 50 | 1017.8 |
| 20260905163105 | 90 | 0 | 0.0 | 3.5 | 0.00 | 0.00 | 0.00 | 44 | 1017.7 |
| 20260905161603 | 92 | 0 | 0.0 | 2.6 | 0.00 | 0.00 | 0.00 | 43 | 1017.7 |
| 20260905160105 | 93 | 206 | 0.0 | 5.2 | 0.00 | 0.00 | 0.00 | 42 | 1017.7 |
| 20260905154606 | 93 | 252 | 0.9 | 2.6 | 0.00 | 0.00 | 0.00 | 41 | 1017.6 |
| 20260905153100 | 94 | 0 | 0.0 | 3.5 | 0.00 | 0.00 | 0.00 | 41 | 1017.5 |
| 20260905151605 | 93 | 235 | 1.7 | 4.3 | 0.00 | 0.00 | 0.00 | 42 | 1017.6 |
| 20260905150108 | 93 | 306 | 0.9 | 3.5 | 0.00 | 0.00 | 0.00 | 42 | 1017.7 |
| 20260905144605 | 94 | 289 | 0.9 | 3.5 | 0.00 | 0.00 | 0.00 | 43 | 1017.7 |
| 20260905143104 | 93 | 183 | 0.9 | 3.5 | 0.00 | 0.00 | 0.00 | 42 | 1017.7 |
| 20260905141603 | 93 | 152 | 0.9 | 4.3 | 0.00 | 0.00 | 0.00 | 43 | 1017.8 |
| 20260905140113 | 92 | 112 | 1.7 | 3.5 | 0.00 | 0.00 | 0.00 | 47 | 1018.0 |
| 20260905134609 | 92 | 175 | 1.7 | 4.3 | 0.00 | 0.00 | 0.00 | 48 | 1018.2 |
| 20260905133102 | 92 | 119 | 0.9 | 4.3 | 0.00 | 0.00 | 0.00 | 46 | 1018.3 |
| 20260905131602 | 92 | 356 | 0.9 | 3.5 | 0.00 | 0.00 | 0.00 | 42 | 1018.3 |
| 20260905130105 | 92 | 318 | 1.7 | 4.3 | 0.00 | 0.00 | 0.00 | 41 | 1018.6 |
| 20260905124604 | 91 | 196 | 2.6 | 7.8 | 0.00 | 0.00 | 0.00 | 47 | 1018.6 |
| 20260905123106 | 91 | 262 | 2.6 | 7.0 | 0.00 | 0.00 | 0.00 | 47 | 1018.7 |
| 20260905121605 | 92 | 349 | 0.9 | 4.3 | 0.00 | 0.00 | 0.00 | 46 | 1018.7 |